Time;durP1;ratioP1;P1;durP2;ratioP2;P2;SDS_P1;SDS_P2;PMS_P1;PMS_P2;Temp;Humidity;BMP_temperature;BMP_pressure;BME280_temperature;BME280_humidity;BME280_pressure;Samples;Min_cycle;Max_cycle;Signal;HPM_P1;HPM_P2
2021/08/06 00:02:25;;;;;;;14.35;11.43;;;24.60;91.50;;;;;;5096055;28;20024;-86
2021/08/06 00:04:50;;;;;;;18.58;11.75;;;24.60;91.60;;;;;;5096197;28;20028;-86
2021/08/06 00:07:16;;;;;;;12.98;11.02;;;24.50;91.60;;;;;;5096221;28;20035;-88
2021/08/06 00:09:42;;;;;;;16.67;11.25;;;24.50;91.60;;;;;;5094575;28;20115;-86
2021/08/06 00:12:08;;;;;;;11.48;10.18;;;24.50;91.80;;;;;;5095496;28;20459;-87
2021/08/06 00:14:34;;;;;;;11.68;9.70;;;24.50;91.90;;;;;;5095877;28;20016;-86
2021/08/06 00:17:00;;;;;;;12.77;10.38;;;24.50;91.80;;;;;;5096022;28;20026;-85
2021/08/06 00:19:26;;;;;;;15.43;11.00;;;24.50;91.80;;;;;;5095996;28;20028;-85
2021/08/06 00:21:51;;;;;;;13.77;10.05;;;24.50;91.90;;;;;;5095896;28;20036;-85
2021/08/06 00:24:18;;;;;;;15.88;10.73;;;24.50;91.90;;;;;;5095569;28;20016;-85
2021/08/06 00:26:44;;;;;;;17.92;9.82;;;24.50;91.90;;;;;;5095661;28;20033;-85
2021/08/06 00:29:10;;;;;;;13.57;10.73;;;24.50;92.00;;;;;;5095849;28;20032;-90
2021/08/06 00:31:39;;;;;;;13.93;9.95;;;24.40;92.40;;;;;;5095422;28;20508;-86
2021/08/06 00:34:05;;;;;;;13.18;11.27;;;24.50;92.30;;;;;;5095334;28;20028;-84
2021/08/06 00:36:31;;;;;;;13.65;11.52;;;24.40;92.40;;;;;;5095583;28;20028;-85
2021/08/06 00:38:56;;;;;;;18.52;12.65;;;24.40;92.70;;;;;;5095575;28;20035;-87
2021/08/06 00:41:22;;;;;;;18.23;11.45;;;24.30;92.70;;;;;;5095287;28;20471;-85
2021/08/06 00:43:48;;;;;;;19.10;14.07;;;24.30;92.90;;;;;;5095132;28;20035;-86
2021/08/06 00:46:16;;;;;;;16.67;12.63;;;24.30;93.00;;;;;;5095480;28;20107;-85
2021/08/06 00:48:43;;;;;;;18.90;13.43;;;24.30;93.00;;;;;;5095328;28;20020;-85
2021/08/06 00:51:09;;;;;;;16.70;13.13;;;24.30;92.90;;;;;;5095084;28;20073;-86
2021/08/06 00:53:37;;;;;;;19.55;12.13;;;24.30;92.80;;;;;;5094944;28;20026;-85
2021/08/06 00:56:07;;;;;;;19.92;12.40;;;24.20;93.20;;;;;;5095029;28;20020;-85
2021/08/06 00:58:33;;;;;;;16.67;13.10;;;24.20;93.10;;;;;;5095185;28;20073;-84
2021/08/06 01:00:59;;;;;;;17.52;12.90;;;24.20;93.10;;;;;;5094907;28;20046;-86
2021/08/06 01:03:26;;;;;;;20.17;13.55;;;24.20;93.40;;;;;;5094793;28;20016;-85
2021/08/06 01:06:08;;;;;;;21.55;12.55;;;24.10;93.50;;;;;;5094835;28;20024;-85
2021/08/06 01:08:53;;;;;;;18.60;14.20;;;24.10;93.70;;;;;;5093482;28;20458;-86
2021/08/06 01:11:23;;;;;;;18.83;14.13;;;24.00;93.90;;;;;;5094667;28;20103;-85
2021/08/06 01:13:54;;;;;;;22.77;15.88;;;24.00;93.80;;;;;;5094397;28;20048;-85
2021/08/06 01:16:25;;;;;;;19.58;14.50;;;24.00;93.80;;;;;;5094636;28;20016;-85
2021/08/06 01:19:14;;;;;;;20.75;14.68;;;24.00;93.80;;;;;;5094576;28;20016;-87
2021/08/06 01:21:48;;;;;;;22.05;15.65;;;24.00;93.80;;;;;;5094075;28;20044;-85
2021/08/06 01:24:19;;;;;;;21.50;14.73;;;23.90;94.00;;;;;;5094462;28;20028;-85
2021/08/06 01:26:45;;;;;;;19.15;14.18;;;23.90;94.00;;;;;;5094463;28;20020;-84
2021/08/06 01:29:12;;;;;;;21.85;14.55;;;23.90;94.00;;;;;;5085360;28;20475;-85
2021/08/06 01:31:38;;;;;;;25.05;14.65;;;23.90;94.10;;;;;;5074092;28;20029;-85
2021/08/06 01:34:04;;;;;;;18.83;13.88;;;23.90;94.10;;;;;;5073963;28;20565;-85
2021/08/06 01:36:30;;;;;;;23.75;14.32;;;23.90;94.10;;;;;;5074024;28;20048;-85
2021/08/06 01:38:56;;;;;;;18.02;13.88;;;23.90;94.50;;;;;;5073919;28;20111;-84
2021/08/06 01:41:35;;;;;;;16.92;14.20;;;23.80;94.30;;;;;;5073938;28;20017;-84
2021/08/06 01:44:24;;;;;;;16.17;14.13;;;23.80;94.40;;;;;;5074197;28;20017;-85
2021/08/06 01:46:52;;;;;;;19.20;13.30;;;23.80;94.50;;;;;;5073845;28;20024;-84
2021/08/06 01:49:28;;;;;;;18.33;14.93;;;23.80;94.70;;;;;;5073751;28;20032;-84
2021/08/06 01:52:23;;;;;;;21.55;14.98;;;23.80;94.90;;;;;;5072513;28;20074;-85
2021/08/06 01:54:51;;;;;;;20.33;13.82;;;23.80;95.10;;;;;;5071459;28;20493;-84
2021/08/06 01:57:18;;;;;;;19.08;15.13;;;23.80;95.00;;;;;;5074303;28;20031;-84
2021/08/06 01:59:44;;;;;;;22.13;15.65;;;23.90;94.90;;;;;;5073681;28;20017;-84
2021/08/06 02:02:10;;;;;;;17.60;14.13;;;23.80;95.10;;;;;;5073699;28;20092;-84
2021/08/06 02:04:37;;;;;;;18.83;14.10;;;23.80;95.20;;;;;;5073656;28;20032;-85
2021/08/06 02:07:02;;;;;;;16.10;13.15;;;23.80;95.20;;;;;;5073672;28;20107;-84
2021/08/06 02:09:29;;;;;;;18.02;14.00;;;23.80;95.10;;;;;;5073552;28;20060;-84
2021/08/06 02:11:55;;;;;;;19.40;13.95;;;23.80;95.30;;;;;;5073388;28;20024;-84
2021/08/06 02:14:22;;;;;;;21.63;15.30;;;23.70;95.20;;;;;;5074036;28;20043;-84
2021/08/06 02:16:51;;;;;;;22.67;15.18;;;23.60;95.30;;;;;;5073535;28;20449;-85
2021/08/06 02:19:21;;;;;;;16.45;14.35;;;23.60;95.40;;;;;;5073558;28;20052;-84
2021/08/06 02:21:50;;;;;;;18.60;14.15;;;23.60;95.50;;;;;;5073799;28;20021;-84
2021/08/06 02:24:16;;;;;;;17.27;14.30;;;23.60;95.50;;;;;;5073490;28;20493;-84
2021/08/06 02:26:44;;;;;;;18.67;15.00;;;23.60;95.60;;;;;;5073416;28;20062;-83
2021/08/06 02:29:13;;;;;;;15.00;13.40;;;23.50;95.70;;;;;;5073655;28;20020;-84
2021/08/06 02:31:40;;;;;;;17.02;13.52;;;23.50;95.80;;;;;;5073299;28;20029;-84
2021/08/06 02:34:07;;;;;;;16.85;13.52;;;23.50;96.00;;;;;;5074115;28;20032;-84
2021/08/06 02:36:33;;;;;;;20.17;14.23;;;23.50;96.30;;;;;;5077387;28;20021;-84
2021/08/06 02:39:00;;;;;;;18.13;14.48;;;23.40;96.30;;;;;;5077618;28;20017;-84
2021/08/06 02:41:27;;;;;;;15.73;12.75;;;23.40;96.40;;;;;;5077637;28;20017;-85
2021/08/06 02:43:52;;;;;;;16.95;13.27;;;23.40;96.50;;;;;;5077226;28;20360;-84
2021/08/06 02:46:18;;;;;;;17.17;13.30;;;23.40;96.60;;;;;;5077245;28;20082;-84
2021/08/06 02:48:44;;;;;;;17.30;12.57;;;23.40;96.60;;;;;;5077421;28;20730;-84
2021/08/06 02:51:10;;;;;;;19.65;14.05;;;23.40;96.70;;;;;;5077253;28;20474;-84
2021/08/06 02:53:36;;;;;;;17.63;13.88;;;23.40;96.80;;;;;;5076939;28;20032;-84
2021/08/06 02:56:02;;;;;;;16.77;14.38;;;23.40;97.00;;;;;;5077014;28;20020;-84
2021/08/06 02:58:28;;;;;;;18.95;14.18;;;23.30;97.10;;;;;;5078007;28;20024;-85
2021/08/06 03:00:53;;;;;;;20.05;16.25;;;23.30;97.40;;;;;;5077189;28;20017;-85
2021/08/06 03:03:19;;;;;;;21.00;16.10;;;23.40;97.60;;;;;;5076979;28;20470;-85
2021/08/06 03:05:45;;;;;;;23.15;16.65;;;23.40;97.80;;;;;;5077072;28;20020;-84
2021/08/06 03:08:10;;;;;;;22.63;16.40;;;23.30;98.50;;;;;;5076829;28;20035;-85
2021/08/06 03:10:37;;;;;;;19.20;15.00;;;23.30;98.70;;;;;;5087266;28;20169;-85
2021/08/06 03:13:02;;;;;;;17.15;14.30;;;23.30;98.80;;;;;;5096727;28;20048;-86
2021/08/06 03:15:28;;;;;;;18.95;15.02;;;23.40;98.90;;;;;;5096923;28;20047;-84
2021/08/06 12:46:33;;;;;;;133.75;20.65;;;22.50;99.90;;;;;;5091746;27;20374;-77
2021/08/06 12:49:09;;;;;;;144.73;23.02;;;22.10;99.90;;;;;;5091364;28;20520;-77
2021/08/06 12:51:37;;;;;;;29.23;16.33;;;21.90;99.90;;;;;;5091069;28;20035;-76
2021/08/06 12:54:03;;;;;;;32.22;16.15;;;21.70;99.90;;;;;;5091096;28;20375;-75
2021/08/06 12:56:49;;;;;;;29.13;16.98;;;21.70;99.90;;;;;;5090502;28;20031;-75
2021/08/06 12:59:22;;;;;;;35.78;17.48;;;21.70;99.90;;;;;;5078500;28;20493;-76
2021/08/06 13:01:49;;;;;;;22.88;16.48;;;21.80;99.90;;;;;;5089533;28;20387;-75
2021/08/06 13:04:30;;;;;;;31.85;17.98;;;21.90;99.90;;;;;;5090863;28;20024;-76
2021/08/06 13:06:57;;;;;;;75.65;25.10;;;22.00;99.90;;;;;;5089742;28;20022;-77
2021/08/06 13:09:37;;;;;;;29.25;18.73;;;22.00;99.90;;;;;;5089427;28;20028;-76
2021/08/06 13:12:15;;;;;;;40.45;20.35;;;22.00;99.90;;;;;;5085774;28;20012;-75
2021/08/06 13:14:43;;;;;;;28.75;18.65;;;22.10;99.90;;;;;;5079394;28;20032;-75
2021/08/06 13:17:10;;;;;;;24.42;16.42;;;22.20;99.90;;;;;;5082266;28;20040;-82
2021/08/06 13:19:36;;;;;;;36.13;19.35;;;22.30;99.90;;;;;;5089018;28;20031;-84
2021/08/06 13:22:08;;;;;;;20.58;14.73;;;22.30;99.90;;;;;;5088880;28;20024;-83
2021/08/06 13:24:35;;;;;;;25.27;15.73;;;22.30;99.90;;;;;;5090811;28;20077;-83
2021/08/06 13:27:01;;;;;;;23.33;14.80;;;22.30;99.90;;;;;;5090450;28;20020;-83
2021/08/06 13:29:26;;;;;;;22.17;14.27;;;22.30;99.90;;;;;;5090286;28;20012;-83
2021/08/06 13:31:52;;;;;;;18.33;13.10;;;22.30;99.90;;;;;;5089106;28;20032;-82
2021/08/06 13:34:18;;;;;;;17.70;10.77;;;22.30;99.90;;;;;;5090201;28;20031;-83
2021/08/06 13:36:44;;;;;;;12.57;9.35;;;22.20;99.90;;;;;;5090217;28;20034;-84
2021/08/06 13:39:10;;;;;;;10.65;8.10;;;22.20;99.90;;;;;;5089774;28;20020;-83
2021/08/06 13:41:37;;;;;;;9.77;6.47;;;22.00;99.90;;;;;;5090119;28;20028;-84
2021/08/06 13:44:04;;;;;;;11.50;7.25;;;21.80;99.90;;;;;;5088574;28;20016;-84
2021/08/06 13:46:29;;;;;;;15.07;8.80;;;21.60;99.90;;;;;;5089819;28;20445;-88
2021/08/06 13:48:55;;;;;;;16.52;9.05;;;21.50;99.90;;;;;;5089906;28;20073;-85
2021/08/06 13:51:21;;;;;;;56.17;20.30;;;21.50;99.90;;;;;;5078599;28;20046;-83
2021/08/06 13:53:47;;;;;;;36.28;16.13;;;21.30;99.90;;;;;;5069874;28;20020;-87
2021/08/06 13:56:12;;;;;;;31.67;14.20;;;21.30;99.90;;;;;;5069224;28;20017;-86
2021/08/06 13:58:38;;;;;;;28.35;12.35;;;21.30;99.90;;;;;;5075125;28;20020;-86
2021/08/06 14:01:04;;;;;;;20.05;11.85;;;21.20;99.90;;;;;;5076509;28;20036;-81
2021/08/06 14:03:30;;;;;;;22.27;12.25;;;21.20;99.90;;;;;;5076552;28;20029;-84
2021/08/06 14:05:55;;;;;;;21.48;11.52;;;21.10;99.90;;;;;;5076322;28;20065;-87
2021/08/06 14:08:21;;;;;;;15.52;11.00;;;21.10;99.90;;;;;;5076173;28;20056;-83
2021/08/06 14:10:47;;;;;;;16.17;10.05;;;21.00;99.90;;;;;;5076417;28;20020;-82
2021/08/06 14:13:13;;;;;;;14.90;10.52;;;21.00;99.90;;;;;;5076069;28;20524;-83
2021/08/06 14:15:38;;;;;;;18.02;9.30;;;21.00;99.90;;;;;;5074569;28;20551;-82
2021/08/06 14:18:04;;;;;;;15.20;10.50;;;20.90;99.90;;;;;;5076493;28;20032;-78
2021/08/06 14:20:32;;;;;;;12.43;8.10;;;21.00;99.90;;;;;;5076036;28;20021;-78
2021/08/06 14:22:58;;;;;;;12.93;8.25;;;21.00;99.90;;;;;;5075671;28;20021;-81
2021/08/06 14:25:23;;;;;;;10.20;7.20;;;21.00;99.90;;;;;;5076207;28;20020;-81
2021/08/06 14:27:49;;;;;;;11.45;7.80;;;21.00;99.90;;;;;;5075807;28;20052;-81
2021/08/06 14:30:15;;;;;;;10.93;7.60;;;21.00;99.90;;;;;;5076068;28;20024;-80
2021/08/06 14:32:41;;;;;;;9.27;6.78;;;21.00;99.90;;;;;;5075581;28;20024;-80
2021/08/06 14:35:07;;;;;;;8.93;6.43;;;21.10;99.90;;;;;;5075532;28;20090;-79
2021/08/06 14:37:33;;;;;;;9.75;6.80;;;21.00;99.90;;;;;;5075679;28;20135;-79
2021/08/06 14:39:58;;;;;;;9.75;7.10;;;21.10;99.90;;;;;;5075692;28;20458;-79
2021/08/06 14:42:24;;;;;;;11.20;6.90;;;21.10;99.90;;;;;;5074345;28;20486;-78
2021/08/06 14:44:51;;;;;;;9.48;7.15;;;21.10;99.90;;;;;;5075524;28;20433;-82
2021/08/06 14:47:17;;;;;;;11.80;7.75;;;21.10;99.90;;;;;;5075902;28;20016;-81
2021/08/06 14:49:43;;;;;;;9.82;7.10;;;21.20;99.90;;;;;;5074129;28;20023;-81
2021/08/06 14:52:09;;;;;;;9.95;6.80;;;21.10;99.90;;;;;;5075438;28;20025;-82
2021/08/06 14:54:35;;;;;;;8.05;6.35;;;21.20;99.90;;;;;;5074266;28;20028;-78
2021/08/06 14:57:02;;;;;;;10.10;6.68;;;21.20;99.90;;;;;;5075553;28;20025;-81
2021/08/06 14:59:28;;;;;;;9.52;7.00;;;21.20;99.90;;;;;;5075441;28;20439;-79
2021/08/06 15:01:55;;;;;;;12.20;7.25;;;21.20;99.90;;;;;;5074068;28;20051;-78
2021/08/06 15:04:20;;;;;;;9.77;6.63;;;21.20;99.90;;;;;;5074018;28;20759;-77
2021/08/06 15:06:46;;;;;;;11.70;7.10;;;21.20;99.90;;;;;;5074859;28;20021;-79
2021/08/06 15:09:12;;;;;;;10.20;6.47;;;21.20;99.90;;;;;;5073900;28;20054;-78
2021/08/06 15:11:38;;;;;;;7.82;6.10;;;21.30;99.90;;;;;;5074920;28;20522;-78
2021/08/06 15:14:04;;;;;;;8.02;6.30;;;21.20;99.90;;;;;;5074388;28;20052;-78
2021/08/06 15:16:31;;;;;;;8.93;6.13;;;21.30;99.90;;;;;;5075375;28;20032;-78
2021/08/06 15:18:57;;;;;;;9.07;5.90;;;21.30;99.90;;;;;;5074860;28;20104;-80
2021/08/06 15:21:23;;;;;;;10.80;5.85;;;21.20;99.90;;;;;;5074943;28;20033;-81
2021/08/06 15:23:48;;;;;;;7.47;5.28;;;21.20;99.90;;;;;;5074684;28;20036;-80
2021/08/06 15:26:14;;;;;;;9.77;6.07;;;21.30;99.90;;;;;;5074877;28;20027;-80
2021/08/06 15:28:40;;;;;;;13.13;8.90;;;21.30;99.90;;;;;;5074680;28;20077;-80
2021/08/06 15:31:07;;;;;;;23.60;13.93;;;21.40;99.90;;;;;;5074608;28;20118;-80
2021/08/06 15:33:33;;;;;;;35.63;20.02;;;21.40;99.90;;;;;;5072315;28;20016;-78
2021/08/06 15:35:58;;;;;;;43.38;19.45;;;21.50;99.90;;;;;;5074107;28;20024;-78
2021/08/06 15:38:24;;;;;;;35.42;16.73;;;21.50;99.90;;;;;;5074302;28;20032;-78
2021/08/06 15:40:50;;;;;;;34.28;16.88;;;21.60;99.90;;;;;;5074153;28;20035;-78
2021/08/06 15:43:16;;;;;;;33.20;16.13;;;21.50;99.90;;;;;;5074332;28;20025;-77
2021/08/06 15:45:42;;;;;;;51.97;21.70;;;21.60;99.90;;;;;;5073416;28;20044;-77
2021/08/06 15:48:08;;;;;;;61.33;21.60;;;21.80;99.90;;;;;;5074203;28;20051;-77
2021/08/06 15:50:33;;;;;;;58.45;22.88;;;21.80;99.90;;;;;;5073621;28;20052;-77
2021/08/06 15:52:59;;;;;;;63.53;23.42;;;21.90;99.90;;;;;;5073893;28;20016;-77
2021/08/06 15:55:25;;;;;;;62.45;23.73;;;21.90;99.90;;;;;;5073435;28;20386;-77
2021/08/06 15:57:51;;;;;;;75.43;25.63;;;21.90;99.90;;;;;;5073724;28;20420;-77
2021/08/06 16:00:19;;;;;;;90.05;29.40;;;22.00;99.90;;;;;;5073849;28;20033;-82
2021/08/06 16:02:45;;;;;;;86.15;29.27;;;22.10;99.90;;;;;;5072367;28;20390;-77
2021/08/06 16:05:12;;;;;;;80.07;27.25;;;22.10;99.90;;;;;;5073099;28;20082;-77
2021/08/06 16:07:38;;;;;;;77.20;27.48;;;22.10;99.90;;;;;;5073717;28;20028;-77
2021/08/06 16:10:04;;;;;;;55.67;22.23;;;22.10;99.90;;;;;;5073893;28;20546;-75
2021/08/06 16:12:30;;;;;;;50.85;21.90;;;22.00;99.90;;;;;;5073612;28;20031;-78
2021/08/06 16:14:56;;;;;;;37.90;17.55;;;22.00;99.90;;;;;;5073726;28;20024;-80
2021/08/06 16:17:22;;;;;;;35.80;16.60;;;22.00;99.90;;;;;;5073595;28;20497;-80
2021/08/06 16:19:47;;;;;;;28.63;14.35;;;21.90;99.90;;;;;;5073660;28;20024;-79
2021/08/06 16:22:13;;;;;;;18.52;11.43;;;21.90;99.90;;;;;;5072616;28;20025;-79
2021/08/06 16:24:39;;;;;;;18.45;11.45;;;21.90;99.90;;;;;;5073792;28;20040;-79
2021/08/06 16:27:06;;;;;;;21.20;12.57;;;21.80;99.90;;;;;;5073651;28;20029;-78
2021/08/06 16:29:31;;;;;;;20.77;12.65;;;21.80;99.90;;;;;;5074111;28;20371;-78
2021/08/06 16:32:00;;;;;;;20.13;10.48;;;21.80;99.90;;;;;;5074285;28;20027;-78
2021/08/06 16:34:29;;;;;;;15.45;10.05;;;21.70;99.90;;;;;;5073748;28;20021;-78
2021/08/06 16:36:55;;;;;;;12.50;9.35;;;21.80;99.90;;;;;;5073499;28;20021;-78
2021/08/06 16:39:21;;;;;;;17.08;11.32;;;21.70;99.90;;;;;;5073490;28;20085;-78
2021/08/06 16:41:48;;;;;;;17.13;11.63;;;21.80;99.90;;;;;;5073279;28;20035;-78
2021/08/06 16:44:15;;;;;;;14.05;11.65;;;21.70;99.90;;;;;;5073581;28;20021;-78
2021/08/06 16:46:41;;;;;;;13.00;9.73;;;21.70;99.90;;;;;;5073760;28;20017;-78
2021/08/06 16:49:09;;;;;;;12.02;8.45;;;21.70;99.90;;;;;;5073578;28;20032;-79
2021/08/06 16:51:39;;;;;;;12.93;8.35;;;21.70;99.90;;;;;;5073328;28;20025;-78
2021/08/06 16:54:06;;;;;;;11.07;8.05;;;21.60;99.90;;;;;;5073875;28;20103;-80
2021/08/06 16:56:31;;;;;;;15.35;8.90;;;21.60;99.90;;;;;;5073705;28;20028;-80
2021/08/06 16:58:57;;;;;;;11.02;7.68;;;21.60;99.90;;;;;;5073992;28;20033;-80
2021/08/06 17:01:23;;;;;;;10.07;7.45;;;21.60;99.90;;;;;;5073755;28;20025;-80
2021/08/06 17:03:49;;;;;;;9.02;7.55;;;21.50;99.90;;;;;;5073516;28;20028;-80
2021/08/06 17:06:15;;;;;;;11.48;7.60;;;21.40;99.90;;;;;;5073865;28;20033;-79
2021/08/06 17:08:41;;;;;;;9.00;7.07;;;21.40;99.90;;;;;;5073737;28;20359;-80
2021/08/06 17:11:06;;;;;;;11.70;7.75;;;21.30;99.90;;;;;;5073269;28;20025;-80
2021/08/06 17:13:33;;;;;;;10.52;7.38;;;21.30;99.90;;;;;;5073223;28;20021;-80
2021/08/06 17:15:59;;;;;;;8.75;7.45;;;21.30;99.90;;;;;;5073845;28;20025;-80
2021/08/06 17:18:25;;;;;;;11.13;8.20;;;21.30;99.90;;;;;;5072970;28;20063;-79
2021/08/06 17:20:51;;;;;;;10.15;8.13;;;21.40;99.90;;;;;;5072720;28;20537;-79
2021/08/06 17:23:20;;;;;;;9.80;8.18;;;21.30;99.90;;;;;;5072954;28;20036;-79
2021/08/06 17:25:46;;;;;;;15.77;9.23;;;21.40;99.90;;;;;;5073256;28;20486;-79
2021/08/06 17:28:12;;;;;;;13.68;8.95;;;21.40;99.90;;;;;;5072080;28;20024;-79
2021/08/06 17:30:39;;;;;;;14.57;11.05;;;21.40;99.90;;;;;;5072988;28;20043;-78
2021/08/06 17:33:08;;;;;;;13.13;10.52;;;21.40;99.90;;;;;;5076038;28;20017;-78
2021/08/06 17:35:35;;;;;;;15.02;9.52;;;21.30;99.90;;;;;;5076688;28;20081;-79
2021/08/06 17:38:00;;;;;;;11.63;8.98;;;21.30;99.90;;;;;;5076743;28;20078;-79
2021/08/06 17:40:27;;;;;;;25.65;13.68;;;21.30;99.90;;;;;;5076767;28;20442;-75
2021/08/06 17:42:52;;;;;;;24.10;18.20;;;21.30;99.90;;;;;;5076768;28;20048;-76
2021/08/06 17:45:19;;;;;;;15.80;12.10;;;21.30;99.90;;;;;;5076497;28;20076;-78
2021/08/06 17:47:45;;;;;;;40.90;18.50;;;21.40;99.90;;;;;;5076841;28;20029;-79
2021/08/06 17:50:11;;;;;;;17.67;11.70;;;21.40;99.90;;;;;;5095499;28;20042;-81
2021/08/06 17:52:37;;;;;;;15.45;10.90;;;21.30;99.90;;;;;;5084044;28;20087;-79
2021/08/06 17:55:04;;;;;;;12.57;10.30;;;21.40;99.90;;;;;;5077160;28;20028;-79
2021/08/06 17:57:30;;;;;;;11.98;10.45;;;21.40;99.90;;;;;;5076636;28;20090;-79
2021/08/06 17:59:56;;;;;;;11.85;9.25;;;21.50;99.90;;;;;;5076236;28;20056;-77
2021/08/06 18:02:21;;;;;;;12.95;9.27;;;21.50;99.90;;;;;;5076353;28;20043;-75
2021/08/06 18:04:47;;;;;;;14.38;9.65;;;21.50;99.90;;;;;;5076508;28;20024;-77
2021/08/06 18:07:13;;;;;;;44.72;35.55;;;21.50;99.90;;;;;;5076721;28;20024;-79
2021/08/06 18:09:39;;;;;;;18.63;15.93;;;21.50;99.90;;;;;;5076747;28;20467;-76
2021/08/06 18:12:05;;;;;;;19.40;13.82;;;21.60;99.90;;;;;;5075778;28;20483;-77
2021/08/06 18:14:31;;;;;;;14.80;12.05;;;21.60;99.90;;;;;;5075364;28;20055;-77
2021/08/06 18:16:57;;;;;;;13.35;10.95;;;21.70;99.90;;;;;;5086633;28;20442;-77
2021/08/06 18:19:22;;;;;;;14.38;11.38;;;21.60;99.90;;;;;;5094955;28;20417;-77
2021/08/06 18:21:49;;;;;;;18.67;13.25;;;21.70;99.90;;;;;;5076448;28;20016;-77
2021/08/06 18:24:14;;;;;;;20.88;14.85;;;21.70;99.90;;;;;;5076606;28;20031;-78
2021/08/06 18:26:40;;;;;;;15.50;11.73;;;21.70;99.90;;;;;;5076218;28;20363;-77
2021/08/06 18:29:07;;;;;;;14.82;9.95;;;21.70;99.90;;;;;;5076002;28;20154;-77
2021/08/06 18:31:33;;;;;;;10.38;9.13;;;21.60;99.90;;;;;;5075710;28;20531;-77
2021/08/06 18:33:58;;;;;;;11.02;8.80;;;21.60;99.90;;;;;;5075322;28;20103;-77
2021/08/06 18:36:24;;;;;;;10.35;8.75;;;21.60;99.90;;;;;;5075924;28;20095;-77
2021/08/06 18:38:51;;;;;;;11.73;9.13;;;21.50;99.90;;;;;;5075541;28;20036;-77
2021/08/06 18:41:20;;;;;;;12.30;9.15;;;21.50;99.90;;;;;;5075440;28;20395;-76
2021/08/06 18:43:47;;;;;;;10.55;9.32;;;21.50;99.90;;;;;;5074264;28;20035;-77
2021/08/06 18:46:13;;;;;;;15.07;9.50;;;21.60;99.90;;;;;;5075378;28;20056;-76
2021/08/06 18:48:39;;;;;;;11.45;9.13;;;21.60;99.90;;;;;;5075402;28;20044;-77
2021/08/06 18:51:07;;;;;;;15.25;9.95;;;21.50;99.90;;;;;;5075242;28;20398;-77
2021/08/06 18:53:34;;;;;;;15.02;10.10;;;21.50;99.90;;;;;;5074862;28;20078;-77
2021/08/06 18:56:01;;;;;;;17.45;11.25;;;21.60;99.90;;;;;;5075008;28;20035;-76
2021/08/06 18:58:27;;;;;;;16.65;10.73;;;21.60;99.90;;;;;;5074817;28;20032;-76
2021/08/06 19:00:53;;;;;;;14.38;11.02;;;21.60;99.90;;;;;;5074883;28;20031;-77
2021/08/06 19:03:19;;;;;;;18.25;12.63;;;21.60;99.90;;;;;;5073565;28;20024;-77
2021/08/06 19:05:45;;;;;;;14.63;11.93;;;21.60;99.90;;;;;;5074811;28;20033;-76
2021/08/06 19:08:10;;;;;;;15.80;11.00;;;21.50;99.90;;;;;;5074290;28;20029;-76
2021/08/06 19:10:36;;;;;;;13.90;11.27;;;21.50;99.90;;;;;;5074221;28;20696;-77
2021/08/06 19:13:08;;;;;;;14.18;9.93;;;21.50;99.90;;;;;;5073013;28;20371;-76
2021/08/06 19:15:35;;;;;;;15.48;11.73;;;21.50;99.90;;;;;;5074576;28;20048;-76
2021/08/06 19:18:00;;;;;;;12.90;10.32;;;21.50;99.90;;;;;;5073983;28;20029;-76
2021/08/06 19:20:26;;;;;;;14.20;10.88;;;21.50;99.90;;;;;;5074663;28;20028;-76
2021/08/06 19:22:52;;;;;;;14.43;11.25;;;21.50;99.90;;;;;;5074470;28;20024;-76
2021/08/06 19:25:18;;;;;;;15.07;11.50;;;21.50;99.90;;;;;;5074291;28;20363;-76
2021/08/06 19:27:43;;;;;;;15.57;11.50;;;21.50;99.90;;;;;;5074042;28;20185;-75
2021/08/06 19:30:09;;;;;;;17.08;11.80;;;21.50;99.90;;;;;;5073991;28;20070;-78
2021/08/06 19:32:35;;;;;;;14.85;12.93;;;21.50;99.90;;;;;;5072959;28;20020;-76
2021/08/06 19:35:03;;;;;;;15.73;12.00;;;21.50;99.90;;;;;;5073903;28;20035;-75
2021/08/06 19:37:30;;;;;;;14.88;11.95;;;21.50;99.90;;;;;;5073632;28;20024;-75
2021/08/06 19:39:56;;;;;;;14.40;11.35;;;21.50;99.90;;;;;;5073482;28;20108;-75
2021/08/06 19:42:22;;;;;;;17.35;11.60;;;21.50;99.90;;;;;;5073503;28;20025;-75
2021/08/06 19:44:47;;;;;;;17.55;11.63;;;21.40;99.90;;;;;;5072903;28;20045;-75
2021/08/06 19:47:13;;;;;;;14.50;10.90;;;21.50;99.90;;;;;;5072069;28;20071;-75
2021/08/06 19:49:39;;;;;;;15.32;10.70;;;21.50;99.90;;;;;;5073953;28;20069;-75
2021/08/06 19:52:05;;;;;;;15.48;11.30;;;21.50;99.90;;;;;;5073848;28;20036;-75
2021/08/06 19:54:31;;;;;;;15.18;11.75;;;21.50;99.90;;;;;;5073451;28;20074;-75
2021/08/06 19:56:57;;;;;;;14.50;10.77;;;21.50;99.90;;;;;;5063195;28;20057;-75
2021/08/06 19:59:25;;;;;;;11.93;10.05;;;21.50;99.90;;;;;;5066120;28;20048;-75
2021/08/06 20:01:51;;;;;;;14.82;9.55;;;21.50;99.90;;;;;;5069644;28;20020;-75
2021/08/06 20:04:16;;;;;;;14.23;10.10;;;21.50;99.90;;;;;;5072506;28;20039;-75
2021/08/06 20:06:42;;;;;;;14.70;11.07;;;21.50;99.90;;;;;;5070974;28;20036;-75
2021/08/06 20:09:10;;;;;;;11.30;9.68;;;21.40;99.90;;;;;;5072685;28;20444;-75
2021/08/06 20:11:36;;;;;;;13.57;10.48;;;21.40;99.90;;;;;;5072734;28;20108;-75
2021/08/06 20:14:03;;;;;;;13.65;10.38;;;21.30;99.90;;;;;;5072836;28;20099;-75
2021/08/06 20:16:28;;;;;;;13.35;10.63;;;21.30;99.90;;;;;;5072318;28;20638;-75
2021/08/06 20:18:56;;;;;;;16.45;10.35;;;21.20;99.90;;;;;;5071129;28;20039;-75
2021/08/06 20:21:22;;;;;;;12.60;10.27;;;21.20;99.90;;;;;;5068831;28;20024;-75
2021/08/06 20:23:48;;;;;;;14.15;11.45;;;21.10;99.90;;;;;;5072661;28;20513;-75
2021/08/06 20:26:14;;;;;;;12.52;10.60;;;21.10;99.90;;;;;;5072469;28;20411;-75
2021/08/06 20:28:41;;;;;;;12.07;10.43;;;21.00;99.90;;;;;;5073151;28;20025;-75
2021/08/06 20:31:07;;;;;;;14.75;11.18;;;21.00;99.90;;;;;;5073033;28;20025;-75
2021/08/06 20:33:34;;;;;;;13.98;10.48;;;21.00;99.90;;;;;;5073011;28;20074;-75
2021/08/06 20:36:00;;;;;;;13.38;10.77;;;21.00;99.90;;;;;;5071470;28;20024;-75
2021/08/06 20:38:26;;;;;;;13.13;10.52;;;21.00;99.90;;;;;;5073271;28;20029;-75
2021/08/06 20:40:51;;;;;;;12.57;11.18;;;21.00;99.90;;;;;;5072989;28;20037;-75
2021/08/06 20:43:17;;;;;;;13.30;10.90;;;21.00;99.90;;;;;;5072927;28;20021;-75
2021/08/06 20:45:43;;;;;;;12.68;11.32;;;21.10;99.90;;;;;;5071255;28;20040;-75
2021/08/06 20:48:13;;;;;;;12.45;10.77;;;21.10;99.90;;;;;;5072835;28;20062;-75
2021/08/06 20:50:39;;;;;;;;;;;21.10;99.90;;;;;;5072953;28;20020;-75
2021/08/06 20:53:05;;;;;;;12.40;10.77;;;21.10;99.90;;;;;;5073063;28;19989;-75
2021/08/06 20:55:31;;;;;;;14.27;10.57;;;21.20;99.90;;;;;;5072899;28;20378;-75
2021/08/06 20:57:57;;;;;;;11.98;10.77;;;21.20;99.90;;;;;;5072828;28;20033;-75
2021/08/06 21:00:22;;;;;;;13.57;11.55;;;21.30;99.90;;;;;;5073093;28;20052;-75
2021/08/06 21:02:49;;;;;;;14.07;10.80;;;21.30;99.90;;;;;;5072953;28;20035;-75
2021/08/06 21:05:15;;;;;;;13.88;10.98;;;21.30;99.90;;;;;;5072896;28;20021;-75
2021/08/06 21:07:41;;;;;;;15.38;10.95;;;21.40;99.90;;;;;;5076074;28;20402;-75
2021/08/06 21:10:07;;;;;;;13.55;10.95;;;21.40;99.90;;;;;;5076903;28;20774;-75
2021/08/06 21:12:33;;;;;;;13.98;11.13;;;21.50;99.90;;;;;;5077299;28;20157;-75
2021/08/06 21:14:59;;;;;;;13.38;10.48;;;21.50;99.90;;;;;;5077530;28;20040;-75
2021/08/06 21:17:25;;;;;;;14.50;10.82;;;21.50;99.90;;;;;;5077295;28;20344;-75
2021/08/06 21:19:50;;;;;;;14.75;11.15;;;21.50;99.90;;;;;;5077341;28;20052;-75
2021/08/06 21:22:16;;;;;;;12.82;10.90;;;21.50;99.90;;;;;;5077130;28;20101;-75
2021/08/06 21:24:42;;;;;;;12.50;10.60;;;21.50;99.90;;;;;;5077346;28;20024;-75
2021/08/06 21:27:08;;;;;;;13.93;10.50;;;21.50;99.90;;;;;;5077363;28;20055;-75
2021/08/06 21:29:35;;;;;;;13.27;10.27;;;21.50;99.90;;;;;;5076947;28;20016;-75
2021/08/06 21:32:02;;;;;;;13.27;10.32;;;21.40;99.90;;;;;;5077105;28;20078;-75
2021/08/06 21:34:27;;;;;;;12.63;10.10;;;21.40;99.90;;;;;;5077119;28;20095;-75
2021/08/06 21:36:53;;;;;;;13.60;9.88;;;21.40;99.90;;;;;;5076605;28;20095;-75
2021/08/06 21:39:19;;;;;;;13.98;10.57;;;21.40;99.90;;;;;;5076460;28;20028;-75
2021/08/06 21:41:46;;;;;;;12.73;9.95;;;21.40;99.90;;;;;;5076723;28;20093;-75
2021/08/06 21:44:13;;;;;;;12.95;10.10;;;21.30;99.90;;;;;;5076825;28;20463;-75
2021/08/06 21:46:38;;;;;;;14.43;11.25;;;21.30;99.90;;;;;;5076155;28;20045;-75
2021/08/06 21:49:04;;;;;;;12.65;10.32;;;21.30;99.90;;;;;;5076796;28;20356;-75
2021/08/06 21:51:30;;;;;;;14.35;11.00;;;21.30;99.90;;;;;;5076957;28;20044;-76
2021/08/06 21:53:57;;;;;;;12.93;10.50;;;21.20;99.90;;;;;;5076581;28;20024;-75
2021/08/06 21:56:23;;;;;;;13.90;10.70;;;21.20;99.90;;;;;;5077107;28;20070;-76
2021/08/06 21:58:48;;;;;;;12.50;10.90;;;21.10;99.90;;;;;;5076790;28;20447;-75